MDT,Max TemperatureF,Mean TemperatureF,Min TemperatureF,Max Dew PointF,MeanDew PointF,Min DewpointF,Max Humidity, Mean Humidity, Min Humidity, Max Sea Level PressureIn, Mean Sea Level PressureIn, Min Sea Level PressureIn, Max VisibilityMiles, Mean VisibilityMiles, Min VisibilityMiles, Max Wind SpeedMPH, Mean Wind SpeedMPH, Max Gust SpeedMPH,PrecipitationIn, CloudCover, Events, WindDirDegrees
2012-3-1,48,34,20,19,14,9,77,49,21,29.83,29.74,29.66,10,10,10,35,12,44,0.00,2,,342
2012-3-2,44,32,20,17,13,5,74,47,20,30.10,29.97,29.82,10,10,10,31,15,43,0.00,1,,310
2012-3-3,47,33,18,22,13,8,73,49,25,30.11,30.03,29.92,10,10,10,33,15,41,0.00,3,,291
2012-3-4,63,47,31,28,25,21,78,52,25,30.20,30.06,29.91,10,10,10,39,16,47,0.00,2,,311
2012-3-5,73,51,29,28,21,10,78,44,10,30.17,29.95,29.78,10,10,9,16,7,28,0.00,0,,204
2012-3-6,74,48,22,24,15,7,74,41,7,29.76,29.55,29.36,10,10,9,24,10,30,0.00,0,,191
2012-3-7,45,37,28,31,23,20,75,53,31,30.30,29.92,29.50,10,10,9,39,16,47,0.00,6,Snow,352
2012-3-8,51,36,20,16,12,9,71,45,18,30.55,30.48,30.32,10,10,10,21,10,28,0.00,0,,309
2012-3-9,65,42,18,21,11,6,77,44,10,30.55,30.40,30.21,10,10,10,20,10,25,0.00,0,,223
2012-3-10,71,49,26,39,26,8,83,52,20,30.21,30.02,29.88,10,10,10,29,15,37,0.00,0,,198
2012-3-11,48,43,37,39,36,32,89,77,65,29.85,29.74,29.60,10,10,10,20,11,25,0.00,6,,174
2012-3-12,74,54,34,32,20,16,82,47,12,29.91,29.80,29.60,10,10,10,28,12,39,0.00,0,,274
2012-3-13,77,53,28,25,19,13,69,39,9,29.94,29.82,29.71,10,10,7,18,6,24,0.00,0,,219
2012-3-14,76,55,34,24,19,16,47,29,11,29.95,29.88,29.75,10,10,10,16,8,23,0.00,0,,212
2012-3-15,76,59,41,29,26,21,42,29,16,30.02,29.96,29.89,10,10,9,20,8,25,0.00,0,,315
2012-3-16,82,59,35,39,27,18,64,38,11,29.93,29.78,29.63,10,10,10,26,10,33,0.00,0,,197
2012-3-17,85,58,31,29,21,10,64,35,6,29.69,29.59,29.49,10,10,10,24,9,31,0.00,0,,195
2012-3-18,83,61,38,56,30,15,78,44,10,29.58,29.45,29.34,10,7,1,44,23,55,0.00,1,,178
2012-3-19,63,52,40,54,16,9,78,45,12,29.57,29.48,29.37,10,10,7,32,9,39,0.00,1,,270
2012-3-20,58,47,36,29,26,17,59,45,30,29.98,29.86,29.59,10,10,8,35,15,43,T,4,Rain,12
2012-3-21,66,48,30,45,27,18,69,45,20,30.02,29.94,29.86,10,10,10,22,11,26,0.01,4,Rain,7
2012-3-22,55,48,41,49,44,39,100,83,66,29.96,29.90,29.80,10,7,2,23,7,31,0.21,6,Rain,342
2012-3-23,70,54,37,47,41,37,100,70,40,30.00,29.96,29.89,10,5,0,12,5,15,0.00,3,Fog,221
2012-3-24,75,59,42,45,43,40,89,65,33,30.09,30.00,29.93,10,10,9,21,10,26,0.00,0,,10
2012-3-25,64,52,39,52,46,38,96,80,63,30.09,30.02,29.90,10,7,3,16,6,20,0.00,3,,129
2012-3-26,87,66,45,53,40,21,100,57,14,29.84,29.65,29.44,10,9,4,41,17,53,0.00,0,,176
2012-3-27,75,56,37,30,22,18,59,36,12,29.99,29.89,29.73,10,10,8,33,10,39,0.00,0,,305
2012-3-28,74,55,36,52,39,27,96,62,27,30.01,29.91,29.77,10,10,5,20,9,25,0.00,0,,153
2012-3-29,73,57,40,53,41,29,100,61,22,29.84,29.80,29.73,10,5,0,32,11,38,0.01,2,Fog,331
2012-3-30,80,59,38,34,30,26,76,45,14,29.88,29.78,29.70,10,10,3,25,10,36,0.00,0,,239
2012-3-31,82,62,41,40,32,28,57,37,16,29.83,29.71,29.52,10,10,10,17,7,21,0.00,0,,240